Time;durP1;ratioP1;P1;durP2;ratioP2;P2;SDS_P1;SDS_P2;PMS_P1;PMS_P2;Temp;Humidity;BMP_temperature;BMP_pressure;BME280_temperature;BME280_humidity;BME280_pressure;Samples;Min_cycle;Max_cycle;Signal;HPM_P1;HPM_P2
2021/09/27 00:01:35;;;;;;;8.05;6.13;;;17.70;84.00;;;;;;5113693;28;20027;-78
2021/09/27 00:04:00;;;;;;;6.57;5.90;;;17.70;84.00;;;;;;5095662;28;20142;-78
2021/09/27 00:06:26;;;;;;;7.00;5.55;;;17.70;84.00;;;;;;5117494;28;20030;-79
2021/09/27 00:08:51;;;;;;;6.90;6.20;;;17.60;84.40;;;;;;5099628;28;20459;-78
2021/09/27 00:11:21;;;;;;;6.57;5.97;;;17.60;84.10;;;;;;5117514;28;20019;-78
2021/09/27 00:13:51;;;;;;;6.75;6.10;;;17.60;84.10;;;;;;5099139;28;20020;-78
2021/09/27 00:16:17;;;;;;;6.55;5.88;;;17.60;84.10;;;;;;5099151;28;20386;-77
2021/09/27 00:18:43;;;;;;;6.90;6.20;;;17.50;84.10;;;;;;5098796;28;20508;-78
2021/09/27 00:21:18;;;;;;;7.32;6.13;;;17.50;84.20;;;;;;5099124;28;20024;-78
2021/09/27 00:23:45;;;;;;;7.18;6.05;;;17.50;84.30;;;;;;5099149;28;20028;-78
2021/09/27 00:26:11;;;;;;;6.68;6.00;;;17.50;84.30;;;;;;5098773;28;20028;-78
2021/09/27 00:28:37;;;;;;;7.80;7.00;;;17.40;84.30;;;;;;5098866;28;20129;-77
2021/09/27 00:31:03;;;;;;;6.70;5.97;;;17.40;84.40;;;;;;5098768;28;20051;-78
2021/09/27 00:33:29;;;;;;;6.90;6.13;;;17.40;84.40;;;;;;5098649;28;20054;-78
2021/09/27 00:35:55;;;;;;;6.95;6.10;;;17.40;84.40;;;;;;5098766;28;20043;-78
2021/09/27 00:38:22;;;;;;;7.05;6.35;;;17.50;84.50;;;;;;5098610;28;20020;-78
2021/09/27 00:40:51;;;;;;;7.00;6.25;;;17.40;84.40;;;;;;5098547;28;20023;-78
2021/09/27 00:46:39;;;;;;;6.57;5.90;;;17.40;84.40;;;;;;5117118;28;20077;-79
2021/09/27 00:49:05;;;;;;;7.72;6.03;;;17.40;84.30;;;;;;5117041;28;20027;-79
2021/09/27 00:51:39;;;;;;;7.32;6.18;;;17.40;84.40;;;;;;5098359;28;20030;-79
2021/09/27 00:54:14;;;;;;;9.32;6.28;;;17.40;84.30;;;;;;5098163;28;20020;-79
2021/09/27 00:56:47;;;;;;;8.88;6.60;;;17.40;84.40;;;;;;5098248;28;20068;-78
2021/09/27 00:59:13;;;;;;;6.90;6.25;;;17.40;84.30;;;;;;5098366;28;20027;-78
2021/09/27 01:01:39;;;;;;;6.20;5.63;;;17.40;84.40;;;;;;5098245;28;20015;-78
2021/09/27 01:04:05;;;;;;;7.20;6.47;;;17.40;84.40;;;;;;5098148;28;20049;-79
2021/09/27 01:06:49;;;;;;;6.57;5.85;;;17.40;84.40;;;;;;5116490;28;20031;-79
2021/09/27 01:09:33;;;;;;;6.75;6.07;;;17.40;84.40;;;;;;5098042;28;20039;-78
2021/09/27 01:12:22;;;;;;;6.88;6.18;;;17.40;84.40;;;;;;5098208;28;20035;-79
2021/09/27 01:15:07;;;;;;;6.35;5.75;;;17.40;84.50;;;;;;5097831;28;20066;-79
2021/09/27 01:18:10;;;;;;;6.25;5.65;;;17.40;84.50;;;;;;5097872;28;20020;-79
2021/09/27 01:20:56;;;;;;;7.07;5.60;;;17.30;84.40;;;;;;5068091;28;20064;-78
2021/09/27 01:23:39;;;;;;;6.40;5.80;;;17.30;84.40;;;;;;5116042;28;20023;-78
2021/09/27 01:26:32;;;;;;;6.20;5.60;;;17.30;84.50;;;;;;5116011;28;20027;-78
2021/09/27 01:29:32;;;;;;;6.80;6.10;;;17.30;84.40;;;;;;5115885;28;20164;-78
2021/09/27 01:32:23;;;;;;;7.40;5.88;;;17.20;84.40;;;;;;5081155;28;20546;-78
2021/09/27 01:35:22;;;;;;;6.93;6.22;;;17.30;84.60;;;;;;5097389;28;20372;-78
2021/09/27 01:38:13;;;;;;;7.28;6.10;;;17.20;84.60;;;;;;5115867;28;20031;-78
2021/09/27 01:40:46;;;;;;;7.07;5.45;;;17.20;84.70;;;;;;5097453;28;20053;-78
2021/09/27 01:43:17;;;;;;;7.28;5.70;;;17.10;84.60;;;;;;5115604;28;20114;-79
2021/09/27 01:46:06;;;;;;;7.20;6.50;;;17.20;84.70;;;;;;5097334;28;20035;-78
2021/09/27 01:48:52;;;;;;;6.78;5.63;;;17.10;84.70;;;;;;5097212;28;20034;-78
2021/09/27 01:51:21;;;;;;;6.90;6.18;;;17.10;84.70;;;;;;5115588;28;20509;-78
2021/09/27 01:53:57;;;;;;;8.40;5.57;;;17.10;84.70;;;;;;5097031;28;20043;-78
2021/09/27 01:56:39;;;;;;;6.32;5.70;;;17.10;84.80;;;;;;5097319;28;20031;-78
2021/09/27 01:59:18;;;;;;;6.80;6.10;;;17.10;84.80;;;;;;5115385;28;20145;-78
2021/09/27 02:02:01;;;;;;;8.73;5.72;;;17.10;84.80;;;;;;5097042;28;20038;-78
2021/09/27 02:04:49;;;;;;;7.10;5.85;;;17.10;84.80;;;;;;5097059;28;20024;-78
2021/09/27 02:07:17;;;;;;;7.05;5.97;;;17.10;84.80;;;;;;5096929;28;20130;-79
2021/09/27 02:09:55;;;;;;;7.50;6.03;;;17.10;84.80;;;;;;5096784;28;20076;-78
2021/09/27 02:12:29;;;;;;;6.75;5.68;;;17.10;84.80;;;;;;5096753;28;20092;-78
2021/09/27 02:15:08;;;;;;;7.38;5.97;;;17.00;84.80;;;;;;5115104;28;20128;-78
2021/09/27 02:17:42;;;;;;;6.50;5.63;;;17.10;84.80;;;;;;5115187;28;20391;-79
2021/09/27 02:20:21;;;;;;;7.35;5.95;;;17.00;84.70;;;;;;5096793;28;20305;-78
2021/09/27 02:23:10;;;;;;;6.90;6.07;;;17.10;84.80;;;;;;5096637;28;20031;-78
2021/09/27 02:25:39;;;;;;;6.97;6.28;;;17.00;84.70;;;;;;5095698;28;20096;-78
2021/09/27 02:28:08;;;;;;;8.63;6.05;;;17.00;84.70;;;;;;5095925;28;20032;-79
2021/09/27 02:30:45;;;;;;;8.48;5.97;;;17.00;84.70;;;;;;5096739;28;20042;-78
2021/09/27 02:33:19;;;;;;;7.38;5.60;;;17.00;84.70;;;;;;5114711;28;20035;-79
2021/09/27 02:35:57;;;;;;;6.90;5.97;;;17.00;84.80;;;;;;5096140;28;20520;-79
2021/09/27 02:39:05;;;;;;;6.78;5.97;;;17.00;84.80;;;;;;5096439;28;20020;-79
2021/09/27 02:44:53;;;;;;;6.68;5.97;;;17.00;84.90;;;;;;5114960;28;20085;-78
2021/09/27 02:47:27;;;;;;;8.00;6.20;;;17.00;84.90;;;;;;5096214;28;20024;-79
2021/09/27 02:49:57;;;;;;;7.78;6.10;;;17.00;84.90;;;;;;5114415;28;20532;-78
2021/09/27 02:52:23;;;;;;;7.93;6.28;;;17.00;84.90;;;;;;5114437;28;20074;-78
2021/09/27 02:54:54;;;;;;;6.47;5.78;;;16.90;85.00;;;;;;5096061;28;20387;-78
2021/09/27 02:57:48;;;;;;;6.88;6.13;;;16.90;85.00;;;;;;5114318;28;20066;-78
2021/09/27 03:00:19;;;;;;;6.90;6.20;;;16.90;85.00;;;;;;5096263;28;20024;-79
2021/09/27 03:03:06;;;;;;;7.90;6.18;;;16.90;85.00;;;;;;5096160;28;20390;-78
2021/09/27 03:05:50;;;;;;;6.90;6.07;;;16.80;85.00;;;;;;5114134;28;20028;-79
2021/09/27 03:08:40;;;;;;;7.13;6.45;;;16.90;85.00;;;;;;5095819;28;20042;-79
2021/09/27 03:11:35;;;;;;;6.75;5.75;;;16.80;85.00;;;;;;5114096;28;20483;-78
2021/09/27 03:14:12;;;;;;;7.78;6.22;;;16.80;85.00;;;;;;5114216;28;20036;-79
2021/09/27 03:17:07;;;;;;;7.38;6.57;;;16.80;85.10;;;;;;5095762;28;20031;-79
2021/09/27 03:20:03;;;;;;;7.32;6.03;;;16.80;85.10;;;;;;5096055;28;20027;-78
2021/09/27 03:22:56;;;;;;;7.53;6.25;;;16.80;85.70;;;;;;5095682;28;20494;-78
2021/09/27 03:25:36;;;;;;;7.93;6.72;;;16.70;85.10;;;;;;5113764;28;20028;-78
2021/09/27 03:28:23;;;;;;;7.05;5.93;;;16.70;85.10;;;;;;5095507;28;20088;-78
2021/09/27 03:31:16;;;;;;;9.15;6.25;;;16.70;85.20;;;;;;5113641;28;20036;-78
2021/09/27 03:33:51;;;;;;;7.13;6.43;;;16.70;85.20;;;;;;5095298;28;20046;-78
2021/09/27 03:36:48;;;;;;;8.38;6.72;;;16.70;85.20;;;;;;5095283;28;20096;-78
2021/09/27 03:39:42;;;;;;;7.57;6.78;;;16.60;85.20;;;;;;5094371;28;20066;-78
2021/09/27 03:42:07;;;;;;;;;;;16.60;85.30;;;;;;5095662;28;20084;-78
2021/09/27 03:45:02;;;;;;;7.38;5.88;;;16.60;85.20;;;;;;5095285;28;19908;-78
2021/09/27 03:47:51;;;;;;;6.97;5.97;;;16.50;85.20;;;;;;5113395;28;20063;-78
2021/09/27 03:50:34;;;;;;;7.25;5.97;;;16.50;85.40;;;;;;5077694;28;20033;-78
2021/09/27 03:53:11;;;;;;;7.00;5.75;;;16.50;85.40;;;;;;5095075;28;20024;-78
2021/09/27 03:55:59;;;;;;;7.38;6.20;;;16.40;85.50;;;;;;5113430;28;20059;-78
2021/09/27 03:58:36;;;;;;;7.35;6.40;;;16.40;85.50;;;;;;5113334;28;20028;-77
2021/09/27 04:01:17;;;;;;;7.25;5.72;;;16.40;85.50;;;;;;5094921;28;20039;-78
2021/09/27 04:04:28;;;;;;;6.90;6.20;;;16.50;85.50;;;;;;5095088;28;20097;-78
2021/09/27 04:07:14;;;;;;;8.07;6.47;;;16.50;85.40;;;;;;5050841;28;20062;-78
2021/09/27 04:09:52;;;;;;;7.07;6.38;;;16.60;85.30;;;;;;5113346;28;20103;-78
2021/09/27 04:12:36;;;;;;;7.13;6.40;;;16.60;85.10;;;;;;5113212;28;20495;-78
2021/09/27 04:15:24;;;;;;;7.65;6.85;;;16.70;85.10;;;;;;5095047;28;20059;-78
2021/09/27 04:18:12;;;;;;;7.10;6.38;;;16.70;85.00;;;;;;5094678;28;20059;-78
2021/09/27 04:21:08;;;;;;;6.43;5.72;;;16.80;85.00;;;;;;5094903;28;20028;-78
2021/09/27 04:23:49;;;;;;;6.18;5.53;;;16.90;85.00;;;;;;5094738;28;20489;-79
2021/09/27 04:26:39;;;;;;;6.68;5.88;;;16.90;84.90;;;;;;5094861;28;20512;-78
2021/09/27 04:29:15;;;;;;;8.18;6.35;;;16.90;84.90;;;;;;5113130;28;20027;-78
2021/09/27 04:31:54;;;;;;;10.02;7.00;;;17.00;84.90;;;;;;5094769;28;20066;-78
2021/09/27 04:34:54;;;;;;;7.97;6.68;;;17.00;84.90;;;;;;5094637;28;20131;-77
2021/09/27 04:37:21;;;;;;;8.27;6.88;;;17.10;84.80;;;;;;5094773;28;20031;-78
2021/09/27 04:39:49;;;;;;;7.35;6.35;;;17.10;84.80;;;;;;5094713;28;20026;-78
2021/09/27 04:42:44;;;;;;;7.63;6.43;;;17.10;84.80;;;;;;5094740;28;20110;-78
2021/09/27 04:45:43;;;;;;;7.90;6.70;;;17.10;84.90;;;;;;5094758;28;20024;-78
2021/09/27 04:48:27;;;;;;;8.75;6.75;;;17.10;84.80;;;;;;5094635;28;20100;-78
2021/09/27 04:51:22;;;;;;;7.72;6.93;;;17.10;84.80;;;;;;5096487;28;20116;-79
2021/09/27 04:57:32;;;;;;;7.85;6.30;;;17.20;84.90;;;;;;5116719;28;20058;-78
2021/09/27 04:59:57;;;;;;;8.00;6.75;;;17.20;84.80;;;;;;5116584;28;20115;-79
2021/09/27 05:02:38;;;;;;;8.32;6.30;;;17.20;84.80;;;;;;5098073;28;20059;-78
2021/09/27 05:05:48;;;;;;;8.02;7.20;;;17.20;84.80;;;;;;5098203;28;20079;-79
2021/09/27 05:08:47;;;;;;;8.95;6.53;;;17.20;84.80;;;;;;5049415;28;20047;-78
2021/09/27 05:11:46;;;;;;;7.22;6.53;;;17.20;84.80;;;;;;5098043;28;20035;-78
2021/09/27 05:14:26;;;;;;;7.60;6.80;;;17.20;84.80;;;;;;5098330;28;20043;-78
2021/09/27 05:16:58;;;;;;;7.65;6.78;;;17.30;84.90;;;;;;5116349;28;20198;-78
2021/09/27 05:20:01;;;;;;;7.25;6.53;;;17.30;84.90;;;;;;5097697;28;20524;-78
2021/09/27 05:22:38;;;;;;;8.88;6.88;;;17.30;84.90;;;;;;5116066;28;20487;-78
2021/09/27 05:25:21;;;;;;;9.50;6.53;;;17.20;84.90;;;;;;5097660;28;20079;-78
2021/09/27 05:28:07;;;;;;;7.90;6.43;;;17.20;85.00;;;;;;5116032;28;20092;-78
2021/09/27 05:30:54;;;;;;;7.85;6.63;;;17.20;85.20;;;;;;5097635;28;20031;-78
2021/09/27 05:33:42;;;;;;;8.52;7.30;;;17.10;85.20;;;;;;5115757;28;20035;-78
2021/09/27 05:36:13;;;;;;;10.45;7.75;;;17.10;85.30;;;;;;5097418;28;20043;-79
2021/09/27 05:39:05;;;;;;;7.13;6.43;;;17.10;85.30;;;;;;5097343;28;20034;-78
2021/09/27 05:41:47;;;;;;;8.52;6.82;;;17.10;85.40;;;;;;5097367;28;20112;-79
2021/09/27 05:44:34;;;;;;;8.65;6.70;;;17.10;85.40;;;;;;5097507;28;20038;-79
2021/09/27 05:47:05;;;;;;;7.82;6.45;;;17.10;85.40;;;;;;5115669;28;20032;-79
2021/09/27 05:50:02;;;;;;;7.65;6.40;;;17.10;85.40;;;;;;5097393;28;20411;-79
2021/09/27 05:52:56;;;;;;;6.60;5.93;;;17.10;85.50;;;;;;5097537;28;20406;-79
2021/09/27 05:55:29;;;;;;;6.97;6.22;;;17.10;85.60;;;;;;5071482;28;20036;-79
2021/09/27 05:58:12;;;;;;;7.95;6.15;;;17.00;85.60;;;;;;5097988;28;20027;-80
2021/09/27 06:01:06;;;;;;;7.68;6.63;;;17.10;85.60;;;;;;5094033;28;20502;-80
2021/09/27 06:03:51;;;;;;;7.15;6.00;;;17.10;85.60;;;;;;5116120;28;20080;-80
2021/09/27 06:06:26;;;;;;;8.80;6.60;;;17.10;85.60;;;;;;5096866;28;20494;-79
2021/09/27 06:09:28;;;;;;;8.07;5.95;;;17.10;85.60;;;;;;5097028;28;20032;-79
2021/09/27 06:12:14;;;;;;;7.68;6.78;;;17.20;85.60;;;;;;5100255;28;20040;-80
2021/09/27 06:14:41;;;;;;;6.57;5.88;;;17.10;85.50;;;;;;5094114;28;20044;-81
2021/09/27 06:17:37;;;;;;;6.70;5.97;;;17.20;85.50;;;;;;5115866;28;20479;-78
2021/09/27 06:20:18;;;;;;;8.48;6.60;;;17.20;85.50;;;;;;5096861;28;20027;-79
2021/09/27 06:22:43;;;;;;;7.57;6.78;;;17.20;85.40;;;;;;5096633;28;20027;-78
2021/09/27 06:25:12;;;;;;;8.18;7.38;;;17.30;85.40;;;;;;5096737;28;20517;-78
2021/09/27 06:28:05;;;;;;;9.00;6.40;;;17.30;85.50;;;;;;5099249;28;20040;-78
2021/09/27 06:30:52;;;;;;;6.97;6.28;;;17.30;85.40;;;;;;5114924;28;20046;-77
2021/09/27 06:33:41;;;;;;;7.88;6.53;;;17.30;85.40;;;;;;5096417;28;20122;-79
2021/09/27 06:36:12;;;;;;;8.18;6.47;;;17.30;85.40;;;;;;5078987;28;20097;-81
2021/09/27 06:38:39;;;;;;;7.40;6.70;;;17.40;85.50;;;;;;5096323;28;20054;-79
2021/09/27 06:41:14;;;;;;;8.25;6.47;;;17.40;85.50;;;;;;5096421;28;20030;-77
2021/09/27 06:43:40;;;;;;;7.88;6.97;;;17.40;85.40;;;;;;5096366;28;20034;-78
2021/09/27 06:46:06;;;;;;;7.18;6.18;;;17.40;85.40;;;;;;5096065;28;20027;-78
2021/09/27 06:48:32;;;;;;;7.53;6.70;;;17.40;85.40;;;;;;5114389;28;20028;-77
2021/09/27 06:50:58;;;;;;;7.20;6.50;;;17.40;85.40;;;;;;5118067;28;20023;-81
2021/09/27 06:53:25;;;;;;;8.57;7.32;;;17.50;85.40;;;;;;5096261;28;20059;-80
2021/09/27 06:55:52;;;;;;;8.73;7.13;;;17.50;85.40;;;;;;5096466;28;20098;-80
2021/09/27 06:58:18;;;;;;;8.05;6.75;;;17.50;85.40;;;;;;5096139;28;20019;-82
2021/09/27 07:00:43;;;;;;;10.00;6.63;;;17.60;85.40;;;;;;5114901;28;20043;-82
2021/09/27 07:03:09;;;;;;;9.98;7.10;;;17.60;85.40;;;;;;5096421;28;20051;-80
2021/09/27 07:05:34;;;;;;;8.52;7.18;;;17.70;85.40;;;;;;5114439;28;20096;-81
2021/09/27 07:08:01;;;;;;;8.38;7.13;;;17.70;85.30;;;;;;5096375;28;20483;-84
2021/09/27 07:10:27;;;;;;;7.75;6.72;;;17.80;85.40;;;;;;5096503;28;20513;-84
2021/09/27 07:12:53;;;;;;;7.25;6.55;;;17.80;85.30;;;;;;5115001;28;20035;-84
2021/09/27 07:15:20;;;;;;;6.68;6.07;;;17.90;85.20;;;;;;5096701;28;20030;-83
2021/09/27 07:17:46;;;;;;;7.65;6.90;;;17.90;85.10;;;;;;5096798;28;20100;-83
2021/09/27 07:20:18;;;;;;;7.78;6.97;;;18.00;85.00;;;;;;5096256;28;20024;-82
2021/09/27 07:22:44;;;;;;;7.95;6.20;;;18.10;85.00;;;;;;5096863;28;20019;-82
2021/09/27 07:25:11;;;;;;;8.02;6.40;;;18.20;84.80;;;;;;5096927;28;20028;-82
2021/09/27 07:27:37;;;;;;;6.97;6.28;;;18.30;84.60;;;;;;5117233;28;20032;-83
2021/09/27 07:30:05;;;;;;;6.82;6.13;;;18.40;84.50;;;;;;5097269;28;20035;-82
2021/09/27 07:32:31;;;;;;;8.48;6.55;;;18.50;84.40;;;;;;5096034;28;20112;-82
2021/09/27 07:34:56;;;;;;;7.80;7.00;;;18.50;84.40;;;;;;5115496;28;20494;-85
2021/09/27 07:37:23;;;;;;;7.50;6.70;;;18.50;84.30;;;;;;5098223;28;20027;-85
2021/09/27 07:39:49;;;;;;;8.38;6.68;;;18.60;84.20;;;;;;5097876;28;20023;-86
2021/09/27 07:42:15;;;;;;;7.22;6.50;;;18.70;84.10;;;;;;5098044;28;20123;-84
2021/09/27 07:44:40;;;;;;;7.32;6.60;;;18.80;84.00;;;;;;5097314;28;20041;-83
2021/09/27 07:47:06;;;;;;;7.85;6.75;;;18.80;83.90;;;;;;5096443;28;20020;-85
2021/09/27 07:49:32;;;;;;;7.50;6.50;;;18.90;83.90;;;;;;5096308;28;20110;-84
2021/09/27 07:51:58;;;;;;;7.03;6.32;;;18.90;83.70;;;;;;5095355;28;20084;-77
2021/09/27 07:54:24;;;;;;;7.53;6.72;;;19.00;83.70;;;;;;5095235;28;20020;-76
2021/09/27 07:56:50;;;;;;;7.20;6.50;;;19.00;83.60;;;;;;5095392;28;20043;-81
2021/09/27 07:59:17;;;;;;;7.68;6.38;;;19.00;83.60;;;;;;5096365;28;20024;-81
2021/09/27 08:01:43;;;;;;;6.70;6.05;;;19.10;83.50;;;;;;5115649;28;20105;-82
2021/09/27 08:04:47;;;;;;;8.13;6.88;;;19.10;83.50;;;;;;5098009;28;20016;-86
2021/09/27 08:07:16;;;;;;;6.47;5.73;;;19.10;83.50;;;;;;5118620;28;20479;-85
2021/09/27 08:09:41;;;;;;;6.82;5.75;;;19.10;83.30;;;;;;5098134;28;20051;-82
2021/09/27 08:12:07;;;;;;;7.10;6.30;;;19.20;83.40;;;;;;5097876;28;20082;-85
2021/09/27 08:15:17;;;;;;;6.30;5.70;;;19.20;83.30;;;;;;5116444;28;20420;-83
2021/09/27 08:17:46;;;;;;;7.95;5.85;;;19.20;83.20;;;;;;5103682;28;20031;-85
2021/09/27 08:23:34;;;;;;;6.55;5.85;;;19.30;83.10;;;;;;5117359;28;20035;-83
2021/09/27 08:26:00;;;;;;;6.75;6.13;;;19.30;83.00;;;;;;5101405;28;20491;-83
2021/09/27 08:28:28;;;;;;;6.80;5.50;;;19.40;82.90;;;;;;5121119;28;20028;-81
2021/09/27 08:30:59;;;;;;;6.20;5.60;;;19.50;82.80;;;;;;5123882;28;20493;-86
2021/09/27 08:33:27;;;;;;;7.00;6.15;;;19.50;82.70;;;;;;5121869;28;20032;-79
2021/09/27 08:35:54;;;;;;;5.45;4.80;;;19.60;82.60;;;;;;5099820;28;20132;-78
2021/09/27 08:38:22;;;;;;;5.88;5.30;;;19.70;82.40;;;;;;5100057;28;20469;-78
2021/09/27 08:41:00;;;;;;;5.68;5.15;;;19.80;82.20;;;;;;5122154;28;20028;-79
2021/09/27 08:43:56;;;;;;;6.85;5.88;;;19.80;82.00;;;;;;5119248;28;20028;-81
2021/09/27 08:46:48;;;;;;;6.35;5.75;;;19.90;81.80;;;;;;5078480;28;20492;-79
2021/09/27 08:49:34;;;;;;;6.60;5.40;;;19.90;81.70;;;;;;5075904;28;20036;-79
2021/09/27 08:52:00;;;;;;;5.95;5.35;;;19.90;81.60;;;;;;5074974;28;20041;-79
2021/09/27 08:54:31;;;;;;;7.22;5.88;;;19.90;81.60;;;;;;5074649;28;20126;-79
2021/09/27 08:57:06;;;;;;;6.90;5.30;;;20.00;81.60;;;;;;5074492;28;20080;-79
2021/09/27 08:59:50;;;;;;;5.65;4.90;;;20.00;81.50;;;;;;5072195;28;20036;-82
2021/09/27 09:02:32;;;;;;;6.45;5.28;;;20.10;81.30;;;;;;5081751;28;20036;-80
2021/09/27 09:05:25;;;;;;;6.38;5.47;;;20.10;81.10;;;;;;5082866;28;20499;-79
2021/09/27 09:07:58;;;;;;;5.40;4.90;;;20.30;81.00;;;;;;5084240;28;20488;-80
2021/09/27 09:10:31;;;;;;;;;;;20.40;80.90;;;;;;5080294;28;20033;-77
2021/09/27 09:13:00;;;;;;;5.32;4.80;;;20.40;80.70;;;;;;5056560;28;19912;-79
2021/09/27 09:15:28;;;;;;;7.15;4.75;;;20.40;80.60;;;;;;5073492;28;20028;-78
2021/09/27 09:18:01;;;;;;;5.30;4.80;;;20.30;80.50;;;;;;5104793;28;20047;-79
2021/09/27 09:20:52;;;;;;;7.82;5.20;;;20.30;80.60;;;;;;5116184;28;20039;-76
2021/09/27 09:23:33;;;;;;;6.15;5.30;;;20.20;80.60;;;;;;5094584;28;20031;-78
2021/09/27 09:26:03;;;;;;;5.55;5.05;;;20.20;80.60;;;;;;5097810;28;20080;-78
2021/09/27 09:28:29;;;;;;;6.00;5.40;;;20.20;80.70;;;;;;5097923;28;20054;-78
2021/09/27 09:31:04;;;;;;;6.45;5.10;;;20.20;80.60;;;;;;5117268;28;20035;-79
2021/09/27 09:33:39;;;;;;;7.15;5.15;;;20.30;80.40;;;;;;5098854;28;20032;-79
2021/09/27 09:36:06;;;;;;;5.20;4.70;;;20.40;80.20;;;;;;5098699;28;20188;-76
2021/09/27 09:38:37;;;;;;;5.32;4.57;;;20.30;80.20;;;;;;5101185;28;20030;-76
2021/09/27 09:41:04;;;;;;;6.78;5.07;;;20.40;80.20;;;;;;5099287;28;20024;-84
2021/09/27 09:43:36;;;;;;;5.43;4.63;;;20.40;80.10;;;;;;5098793;28;20061;-82
2021/09/27 09:46:18;;;;;;;5.80;5.22;;;20.40;80.00;;;;;;5098107;28;20487;-84
2021/09/27 09:49:08;;;;;;;6.00;4.63;;;20.50;80.00;;;;;;5097710;28;20100;-82
2021/09/27 09:51:43;;;;;;;5.53;4.78;;;20.70;79.80;;;;;;5116355;28;20497;-81
2021/09/27 09:57:34;;;;;;;5.75;4.40;;;21.00;79.20;;;;;;5117114;28;20022;-83
2021/09/27 10:00:07;;;;;;;5.65;5.05;;;21.10;79.00;;;;;;5099076;28;20045;-84
2021/09/27 10:02:36;;;;;;;5.18;4.65;;;21.20;78.80;;;;;;5098527;28;20039;-84
2021/09/27 10:05:19;;;;;;;6.80;4.43;;;21.20;78.60;;;;;;5116433;28;20028;-83
2021/09/27 10:07:49;;;;;;;5.10;4.60;;;21.20;78.50;;;;;;5097761;28;20058;-81
2021/09/27 10:10:37;;;;;;;5.85;4.40;;;21.30;78.40;;;;;;5098072;28;20036;-81
2021/09/27 10:13:26;;;;;;;4.50;4.10;;;21.30;78.20;;;;;;5089148;28;20037;-81
2021/09/27 10:15:52;;;;;;;6.75;4.15;;;21.40;78.00;;;;;;5116683;28;20498;-80
2021/09/27 10:21:40;;;;;;;4.70;4.20;;;21.40;77.40;;;;;;5119099;28;20094;-85
2021/09/27 10:24:18;;;;;;;5.97;4.50;;;21.50;77.10;;;;;;5099866;28;20110;-87
2021/09/27 10:26:54;;;;;;;4.38;3.97;;;21.50;76.90;;;;;;5116520;28;20061;-86
2021/09/27 10:29:26;;;;;;;3.90;3.58;;;21.50;76.90;;;;;;5119536;28;20043;-85
2021/09/27 10:32:31;;;;;;;4.53;3.72;;;21.40;76.90;;;;;;5119326;28;20090;-81
2021/09/27 10:35:01;;;;;;;3.95;3.50;;;21.30;77.20;;;;;;5105349;28;20103;-85
2021/09/27 10:37:28;;;;;;;3.78;3.40;;;21.30;77.20;;;;;;5118793;28;20034;-84
2021/09/27 10:39:57;;;;;;;5.10;3.30;;;21.20;77.10;;;;;;5119006;28;20034;-84
2021/09/27 10:42:38;;;;;;;3.70;2.70;;;21.20;77.10;;;;;;5133745;28;20042;-84
2021/09/27 10:45:07;;;;;;;3.15;2.95;;;21.20;77.10;;;;;;5119259;28;20040;-82
2021/09/27 10:47:37;;;;;;;3.88;3.47;;;21.10;77.20;;;;;;5118451;28;20026;-83
2021/09/27 10:50:32;;;;;;;3.33;3.00;;;21.10;77.10;;;;;;5118830;28;20054;-83
2021/09/27 10:53:24;;;;;;;3.83;3.08;;;21.10;77.30;;;;;;5116642;28;20107;-83
2021/09/27 10:56:12;;;;;;;3.42;3.00;;;21.10;77.30;;;;;;5136347;28;20028;-86
2021/09/27 10:58:55;;;;;;;3.17;2.83;;;21.10;77.30;;;;;;5118415;28;20156;-83
2021/09/27 11:01:52;;;;;;;3.17;2.88;;;21.00;77.30;;;;;;5119026;28;20026;-83
2021/09/27 11:04:21;;;;;;;5.03;3.03;;;21.00;77.20;;;;;;5118529;28;20030;-84
2021/09/27 11:06:57;;;;;;;3.70;3.00;;;21.00;77.20;;;;;;5118098;27;20028;-82
2021/09/27 11:09:26;;;;;;;4.80;2.92;;;21.10;77.10;;;;;;5118778;28;20035;-84
2021/09/27 11:12:12;;;;;;;4.28;3.03;;;21.10;77.10;;;;;;5118556;27;20060;-83
2021/09/27 11:14:49;;;;;;;3.13;2.83;;;21.10;77.00;;;;;;5118205;28;20028;-83
2021/09/27 11:17:41;;;;;;;4.90;2.70;;;21.10;76.90;;;;;;5115828;28;20023;-85
2021/09/27 11:20:15;;;;;;;3.85;2.80;;;21.20;76.90;;;;;;5114469;28;20031;-85
2021/09/27 11:23:19;;;;;;;6.00;2.63;;;21.20;76.90;;;;;;5113461;28;20031;-87
2021/09/27 11:25:49;;;;;;;4.70;2.83;;;21.30;76.80;;;;;;5113672;28;20067;-85
2021/09/27 11:28:42;;;;;;;3.83;2.50;;;21.30;76.70;;;;;;5131701;28;20136;-81
2021/09/27 11:34:43;;;;;;;3.47;2.53;;;21.40;76.50;;;;;;5130107;28;20057;-81
2021/09/27 11:37:41;;;;;;;5.13;2.92;;;21.40;76.50;;;;;;5110284;28;20342;-85
2021/09/27 11:40:06;;;;;;;3.25;2.60;;;21.40;76.50;;;;;;5091028;28;20036;-83
2021/09/27 11:42:34;;;;;;;4.18;2.60;;;21.40;76.30;;;;;;5105811;28;20031;-85
2021/09/27 11:45:09;;;;;;;2.85;2.60;;;21.50;76.30;;;;;;5100143;28;20659;-82
2021/09/27 11:47:42;;;;;;;3.40;2.42;;;21.60;76.20;;;;;;5099636;28;20039;-84
2021/09/27 11:50:31;;;;;;;3.25;2.53;;;21.70;75.90;;;;;;5100670;28;20122;-86
2021/09/27 11:53:10;;;;;;;3.72;2.35;;;21.80;75.60;;;;;;5100466;28;20487;-85
2021/09/27 11:55:54;;;;;;;4.28;2.30;;;21.80;75.30;;;;;;5101062;28;20023;-87
2021/09/27 11:58:52;;;;;;;3.95;2.30;;;21.90;75.20;;;;;;5099747;28;20055;-86
2021/09/27 12:01:38;;;;;;;4.82;2.00;;;21.90;74.90;;;;;;5059289;28;20032;-84
2021/09/27 12:04:25;;;;;;;3.38;2.13;;;21.90;74.70;;;;;;5099002;28;20056;-84
2021/09/27 12:06:57;;;;;;;2.83;1.90;;;22.00;74.60;;;;;;5098723;28;20036;-84
2021/09/27 12:09:36;;;;;;;2.50;1.80;;;22.00;74.00;;;;;;5092436;28;20118;-85
2021/09/27 12:12:06;;;;;;;2.15;1.65;;;22.00;73.80;;;;;;5084856;28;20274;-87
2021/09/27 12:14:43;;;;;;;1.92;1.83;;;22.00;73.70;;;;;;5095973;28;20016;-86
2021/09/27 12:17:16;;;;;;;2.60;1.90;;;22.00;74.00;;;;;;5108666;28;20042;-84
2021/09/27 12:20:16;;;;;;;2.63;2.00;;;21.90;73.40;;;;;;5116561;28;20475;-84
2021/09/27 12:22:54;;;;;;;2.35;1.60;;;21.90;73.10;;;;;;5098120;28;20012;-86
2021/09/27 12:25:36;;;;;;;1.73;1.60;;;21.90;72.90;;;;;;5097802;28;20012;-85
2021/09/27 12:28:12;;;;;;;3.97;1.67;;;21.80;72.90;;;;;;5097321;28;20558;-85
2021/09/27 12:30:41;;;;;;;5.45;1.73;;;21.90;73.00;;;;;;5097537;28;20115;-84
2021/09/27 12:33:25;;;;;;;2.60;1.77;;;21.90;72.80;;;;;;5096857;28;20082;-83
2021/09/27 12:36:07;;;;;;;1.85;1.70;;;21.90;72.70;;;;;;5096651;28;20043;-84
2021/09/27 12:38:34;;;;;;;2.10;1.90;;;21.90;72.50;;;;;;5115371;28;20023;-85
2021/09/27 12:41:01;;;;;;;2.90;1.83;;;22.00;72.40;;;;;;5097087;28;20027;-87
2021/09/27 12:43:32;;;;;;;2.15;1.77;;;22.00;72.20;;;;;;5115692;28;20110;-87
2021/09/27 12:46:25;;;;;;;2.00;1.80;;;22.10;72.10;;;;;;5096530;28;20038;-87
2021/09/27 12:49:00;;;;;;;1.67;1.58;;;22.20;71.90;;;;;;5096151;28;20027;-85
2021/09/27 12:52:00;;;;;;;2.20;1.80;;;22.30;71.50;;;;;;5096429;28;20031;-85
2021/09/27 12:54:39;;;;;;;2.00;1.80;;;22.30;71.10;;;;;;5036118;28;20074;-86
2021/09/27 12:57:39;;;;;;;2.75;1.70;;;22.40;71.20;;;;;;5093073;28;20060;-86
2021/09/27 13:00:30;;;;;;;1.73;1.60;;;22.40;71.10;;;;;;5087271;28;20568;-86
2021/09/27 13:03:03;;;;;;;4.07;2.03;;;22.50;71.00;;;;;;5113306;28;20067;-86
2021/09/27 13:05:44;;;;;;;;;;;22.50;70.90;;;;;;5096853;28;20047;-86
2021/09/27 13:08:25;;;;;;;2.00;1.80;;;22.40;70.90;;;;;;5095919;28;20007;-85
2021/09/27 13:10:55;;;;;;;3.67;2.25;;;22.40;71.00;;;;;;5096452;28;20015;-85
2021/09/27 13:13:32;;;;;;;2.78;2.00;;;22.30;70.90;;;;;;5099430;28;20024;-85
2021/09/27 13:16:17;;;;;;;2.25;2.03;;;22.30;71.10;;;;;;5099949;28;20534;-87
2021/09/27 13:18:48;;;;;;;2.35;1.90;;;22.20;71.20;;;;;;5100174;28;20406;-86
2021/09/27 13:24:35;;;;;;;2.50;1.67;;;22.10;71.80;;;;;;5117971;28;20088;-85
2021/09/27 13:27:11;;;;;;;3.25;1.85;;;22.10;72.10;;;;;;5100186;28;20015;-85
2021/09/27 13:29:40;;;;;;;2.85;2.10;;;22.00;72.50;;;;;;5099468;28;20020;-85
2021/09/27 13:32:35;;;;;;;2.47;1.75;;;21.90;72.80;;;;;;5099158;28;20494;-85
2021/09/27 13:35:12;;;;;;;3.05;2.00;;;21.80;73.30;;;;;;5099914;28;20048;-86
2021/09/27 13:37:41;;;;;;;3.97;2.50;;;21.70;73.60;;;;;;5099385;28;20019;-87
2021/09/27 13:40:29;;;;;;;2.15;1.98;;;21.60;73.80;;;;;;5100023;28;20479;-86
2021/09/27 13:43:36;;;;;;;3.38;1.88;;;21.60;73.90;;;;;;5100015;28;20391;-86
2021/09/27 13:49:24;;;;;;;2.20;1.98;;;21.50;74.40;;;;;;5117990;28;20025;-84
2021/09/27 13:51:50;;;;;;;2.58;2.00;;;21.50;74.60;;;;;;5099170;28;20473;-85
2021/09/27 13:54:16;;;;;;;2.40;1.80;;;21.50;74.70;;;;;;5099454;28;20027;-86
2021/09/27 13:56:43;;;;;;;1.90;1.80;;;21.50;74.80;;;;;;5098865;28;20020;-85
2021/09/27 13:59:09;;;;;;;1.70;1.58;;;21.50;74.90;;;;;;5098939;28;20023;-86
2021/09/27 14:01:35;;;;;;;2.08;1.80;;;21.50;74.90;;;;;;5098665;28;20031;-86
2021/09/27 14:04:02;;;;;;;1.70;1.60;;;21.50;74.80;;;;;;5098766;28;20023;-86
2021/09/27 14:06:29;;;;;;;1.75;1.65;;;21.50;74.70;;;;;;5117044;28;20479;-84
2021/09/27 14:08:58;;;;;;;2.22;1.60;;;21.50;74.60;;;;;;5116269;28;20031;-84
2021/09/27 14:11:25;;;;;;;1.35;1.25;;;21.40;74.60;;;;;;5098104;28;20032;-85
2021/09/27 14:13:51;;;;;;;1.90;1.23;;;21.30;75.00;;;;;;5116100;28;20501;-84